Jeffrey's Bay, South Africa
Current Conditions -  °F | °C
As of 5:49 PM on Sunday 23 Nov 2014 (Local Time) from FAPE Reporting Station
Drizzle Drizzle  
Wind Chill: 66°   Ceiling: 200
Heat Index: 66°   Visibility: 1.8mi
Dew Point: 64°   Wind: 13mph
Humidity: 94%   Direction: 120°ESE
Pressure: 29.94"   Gusts: NA
Location:  34.05°S, 24.92°E
Report Text: FAPE 231549Z 12011KT 3000 DZ BKN002 19/18 Q1014 NOSIG
Loading
Personal Weather Stations






























Interactive Weather Map New forecast layout! Learn more

10-Day Weather Forecast

Advertisements
Track Severe Weather on mobile